Skip to main content

NOAA/GLERL Met Station at Muskegon, MI

Previous 5 days (top of hour only)
See also Previous 3 Hours (2 minute increments)
Jump down to Data
Switch to [English][Metric]
Zoom: Click and drag, Pan: shift-click and drag, Unzoom: double-click, Unzoom All






Note: Speed = mean wind during 2-minute period at top of hour,
Gust = max wind during 2-minute period at top of hour,
Peak = max wind during entire hour.
• See also 5-day windrose plot


NOAA/GLERL Met Station at Muskegon, MI

Previous 5 days (top of hour only)
See also Previous 3 Hours (2 minute increments)
Jump up to Graphs
Switch to [English][Metric]
                  Wind  Wind  Wind   Air   Dew   Rel     Sta   PAR
                   Spd   Gst   Dir  Temp    Pt   Hum    Pres uE/m2/
YYYY-MM-DD   EDT   m/s   m/s   deg     C     C     %      mb   sec
2024-04-13 19:00 -99.0 -99.0   -99   9.4   2.2  60.9  992.20  1050
2024-04-13 18:00 -99.0 -99.0   -99   9.2   3.2  66.1  993.10  1362
2024-04-13 17:00 -99.0 -99.0   -99   9.3   3.8  68.7  994.20  1494
2024-04-13 16:00 -99.0 -99.0   -99   8.7   4.1  72.7  994.90  1566
2024-04-13 15:00 -99.0 -99.0   -99   7.0   3.6  79.0  996.20  1613
2024-04-13 14:00 -99.0 -99.0   -99   7.2   3.2  76.0  996.70  1638
2024-04-13 13:00 -99.0 -99.0   -99   6.8   2.4  73.5  997.00  1642
2024-04-13 12:00 -99.0 -99.0   -99   6.7   2.8  76.6  997.00  1625
2024-04-13 11:00 -99.0 -99.0   -99   6.8   2.7  75.3  996.90  1575
2024-04-13 10:00 -99.0 -99.0   -99   6.4   2.9  78.4  996.70  1467
2024-04-13 09:00 -99.0 -99.0   -99   6.3   3.0  79.2  996.10  1245
2024-04-13 08:00 -99.0 -99.0   -99   6.3   2.8  78.4  995.90   762
2024-04-13 07:00 -99.0 -99.0   -99   6.5   2.8  77.3  995.30    10
2024-04-13 06:00 -99.0 -99.0   -99   6.6   3.1  77.9  994.50     2
2024-04-13 05:00 -99.0 -99.0   -99   6.8   2.8  75.8  993.90     2
2024-04-13 04:00 -99.0 -99.0   -99   6.7   2.9  77.0  993.60     2
2024-04-13 03:00 -99.0 -99.0   -99   7.0   2.9  75.1  993.20     2
2024-04-13 02:00 -99.0 -99.0   -99   8.5  -0.7  52.4  992.70     2
2024-04-13 01:00 -99.0 -99.0   -99   8.0   0.7  60.0  993.00     2
2024-04-13 00:00 -99.0 -99.0   -99   7.3   2.8  72.9  992.40     2
2024-04-12 23:00 -99.0 -99.0   -99   7.5   3.6  76.3  991.80     2
2024-04-12 22:00 -99.0 -99.0   -99   7.3   3.8  78.6  991.00     2
2024-04-12 21:00 -99.0 -99.0   -99   7.4   4.3  80.5  989.90     2
2024-04-12 20:00 -99.0 -99.0   -99   7.6   4.4  80.4  988.70   163
2024-04-12 19:00 -99.0 -99.0   -99   8.0   4.6  78.9  987.80   974
2024-04-12 18:00 -99.0 -99.0   -99   9.2   4.4  71.7  987.00  1421
2024-04-12 17:00 -99.0 -99.0   -99  10.0   4.5  68.5  985.90  1418
2024-04-12 16:00 -99.0 -99.0   -99   9.5   4.8  72.7  985.30  1670
2024-04-12 15:00 -99.0 -99.0   -99   9.4   4.9  73.2  984.50  1755
2024-04-12 14:00 -99.0 -99.0   -99   9.2   5.6  77.9  983.40  1771
2024-04-12 13:00 -99.0 -99.0   -99   7.5   5.1  84.8  982.50   807
2024-04-12 12:00 -99.0 -99.0   -99   7.1   4.9  85.8  981.90   226
2024-04-12 11:00 -99.0 -99.0   -99   7.1   5.0  86.7  981.00   893
2024-04-12 10:00 -99.0 -99.0   -99   7.0   5.2  88.4  980.20   368
2024-04-12 09:00 -99.0 -99.0   -99   6.8   5.6  91.8  980.10   257
2024-04-12 08:00 -99.0 -99.0   -99   6.8   5.9  94.0  979.30    68
2024-04-12 07:00 -99.0 -99.0   -99   6.8   5.8  93.7  978.80     3
2024-04-12 06:00 -99.0 -99.0   -99   6.9   6.0  94.0  978.30     2
2024-04-12 05:00 -99.0 -99.0   -99   6.7   6.1  95.8  978.10     2
2024-04-12 04:00 -99.0 -99.0   -99   6.5   5.8  95.3  977.90     2
2024-04-12 03:00 -99.0 -99.0   -99   6.2   5.4  94.6  978.10     2
2024-04-12 02:00 -99.0 -99.0   -99   6.3   5.4  94.4  978.10     2
2024-04-12 01:00 -99.0 -99.0   -99   6.2   5.5  95.1  978.10     2
2024-04-12 00:00 -99.0 -99.0   -99   6.7   5.8  93.8  978.40     2
2024-04-11 23:00 -99.0 -99.0   -99   8.2   6.3  87.6  978.40     2
2024-04-11 22:00 -99.0 -99.0   -99   8.3   6.5  88.2  978.20     2
2024-04-11 21:00 -99.0 -99.0   -99   8.3   6.5  88.1  978.30     2
2024-04-11 20:00 -99.0 -99.0   -99   7.0   5.9  93.2  978.10    13
2024-04-11 19:00 -99.0 -99.0   -99   8.3   7.1  92.1  978.20    59
2024-04-11 18:00 -99.0 -99.0   -99  10.4   6.9  78.8  978.40   206
2024-04-11 17:00 -99.0 -99.0   -99  10.8   7.4  79.3  978.20   385
2024-04-11 16:00 -99.0 -99.0   -99  11.1   7.4  78.2  978.50   462
2024-04-11 15:00 -99.0 -99.0   -99  12.1   6.5  68.6  979.10   442
2024-04-11 14:00 -99.0 -99.0   -99  12.7   6.2  64.5  979.70   876
2024-04-11 13:00 -99.0 -99.0   -99  12.4   5.9  64.4  980.40   415
2024-04-11 12:00 -99.0 -99.0   -99  12.7   4.7  58.0  981.20   425
2024-04-11 11:00 -99.0 -99.0   -99  12.3   4.2  57.6  981.90   377
2024-04-11 10:00 -99.0 -99.0   -99  12.6   3.9  55.5  982.20   274
2024-04-11 09:00 -99.0 -99.0   -99  12.0   4.7  60.8  982.70   115
2024-04-11 08:00 -99.0 -99.0   -99  12.0   4.6  60.4  982.50    44
2024-04-11 07:00 -99.0 -99.0   -99  11.9   4.8  61.7  982.80     2
2024-04-11 06:00 -99.0 -99.0   -99  12.2   4.7  59.9  983.50     2
2024-04-11 05:00 -99.0 -99.0   -99  11.9   4.9  62.1  984.70     2
2024-04-11 04:00 -99.0 -99.0   -99  12.1   4.8  60.9  985.90     2
2024-04-11 03:00 -99.0 -99.0   -99  12.3   4.0  56.8  986.40     2
2024-04-11 02:00 -99.0 -99.0   -99  11.4   4.5  62.4  987.50     2
2024-04-11 01:00 -99.0 -99.0   -99  11.5   3.4  57.5  987.80     2
2024-04-11 00:00 -99.0 -99.0   -99  11.3   4.2  61.3  988.60     2
2024-04-10 23:00 -99.0 -99.0   -99  10.6   5.1  68.9  988.90     2
2024-04-10 22:00 -99.0 -99.0   -99  11.1   4.0  61.5  989.50     2
2024-04-10 21:00 -99.0 -99.0   -99  11.7   2.9  54.7  989.90     2
2024-04-10 20:00 -99.0 -99.0   -99  12.3   2.8  52.3  990.20    69
2024-04-10 19:00 -99.0 -99.0   -99  13.2   3.4  51.6  991.00   444
2024-04-10 18:00 -99.0 -99.0   -99  13.6   4.5  54.1  990.80   696
2024-04-10 17:00 -99.0 -99.0   -99  14.3   5.2  54.5  991.20  1652
2024-04-10 16:00 -99.0 -99.0   -99  11.9   5.1  63.0  992.20  1594
2024-04-10 15:00 -99.0 -99.0   -99  10.2   5.2  70.8  992.70  1201
2024-04-10 14:00 -99.0 -99.0   -99  10.7   5.1  68.4  993.20  1725
2024-04-10 13:00 -99.0 -99.0   -99  10.7   5.5  70.0  993.20  1521
2024-04-10 12:00 -99.0 -99.0   -99   9.8   5.1  72.4  993.50  1544
2024-04-10 11:00 -99.0 -99.0   -99   9.3   4.9  73.8  993.90  1640
2024-04-10 10:00 -99.0 -99.0   -99   8.2   4.6  78.3  993.20  1282
2024-04-10 09:00 -99.0 -99.0   -99   7.5   4.5  81.5  993.60  1163
2024-04-10 08:00 -99.0 -99.0   -99   7.3   4.4  81.6  993.10   617
2024-04-10 07:00 -99.0 -99.0   -99   7.4   4.1  79.7  992.60     6
2024-04-10 06:00 -99.0 -99.0   -99   7.2   4.4  82.0  992.30     2
2024-04-10 05:00 -99.0 -99.0   -99   6.5   4.4  86.5  992.10     2
2024-04-10 04:00 -99.0 -99.0   -99   6.2   4.2  86.7  992.10     2
2024-04-10 03:00 -99.0 -99.0   -99   6.4   3.3  80.8  992.10     2
2024-04-10 02:00 -99.0 -99.0   -99   6.6   3.7  81.5  992.10     2
2024-04-10 01:00 -99.0 -99.0   -99   6.7   3.9  82.7  992.30     2
2024-04-10 00:00 -99.0 -99.0   -99   7.4   2.9  73.0  992.00     2
2024-04-09 23:00 -99.0 -99.0   -99   8.4   3.0  68.7  992.00     2
2024-04-09 22:00 -99.0 -99.0   -99   7.4   3.3  74.8  992.10     2
2024-04-09 21:00 -99.0 -99.0   -99   8.4   5.0  78.9  991.60     2
2024-04-09 20:00 -99.0 -99.0   -99   9.9   3.9  66.5  991.60   302
2024-04-09 19:00 -99.0 -99.0   -99   9.5   4.6  71.3  991.50  1011
2024-04-09 18:00 -99.0 -99.0   -99   8.3   4.9  79.1  991.30  1331
2024-04-09 17:00 -99.0 -99.0   -99   8.3   5.1  79.8  991.00  1486
2024-04-09 16:00 -99.0 -99.0   -99   7.5   5.2  85.2  991.50  1566
2024-04-09 15:00 -99.0 -99.0   -99   7.1   5.3  87.9  991.30  1618
2024-04-09 14:00 -99.0 -99.0   -99   8.3   4.7  77.9  990.90  1701
2024-04-09 13:00 -99.0 -99.0   -99   7.8   5.1  83.3  990.50  1624
2024-04-09 12:00 -99.0 -99.0   -99   9.1   5.7  79.7  990.20  1636
2024-04-09 11:00 -99.0 -99.0   -99   7.6   5.0  83.1  989.60  1489
2024-04-09 10:00 -99.0 -99.0   -99   7.7   4.8  82.3  988.90  1359
2024-04-09 09:00 -99.0 -99.0   -99   8.3   4.4  76.8  988.40  1145
2024-04-09 08:00 -99.0 -99.0   -99   9.1   4.5  72.4  988.00   309
2024-04-09 07:00 -99.0 -99.0   -99   9.4   4.1  69.5  988.10     3
2024-04-09 06:00 -99.0 -99.0   -99  10.5   4.6  66.7  987.20     2
2024-04-09 05:00 -99.0 -99.0   -99   8.7   5.1  77.7  988.10     2
2024-04-09 04:00 -99.0 -99.0   -99  11.7   3.7  58.1  989.40     2
2024-04-09 03:00 -99.0 -99.0   -99  11.9   3.8  57.2  990.00     2
2024-04-09 02:00 -99.0 -99.0   -99  12.5   4.3  57.2  990.70     2
2024-04-09 01:00 -99.0 -99.0   -99   8.0   5.1  81.6  991.50     2
2024-04-09 00:00 -99.0 -99.0   -99   8.8   5.1  77.5  991.60     2
2024-04-08 23:00 -99.0 -99.0   -99  10.5   5.0  68.7  991.50     2
2024-04-08 22:00 -99.0 -99.0   -99  10.7   4.6  66.2  991.30     2
2024-04-08 21:00 -99.0 -99.0   -99  12.1   5.1  62.1  991.30     2
2024-04-08 20:00 -99.0 -99.0   -99  10.7   5.1  68.1  991.50   159